createdAt,value
2017-04-17T00:00:03.546Z,99.99
2017-04-17T00:01:03.535Z,99.99
2017-04-17T00:02:03.524Z,99.99
2017-04-17T00:03:03.514Z,99.99
2017-04-17T00:04:03.502Z,99.99
2017-04-17T00:05:03.491Z,99.99
2017-04-17T00:06:03.480Z,99.99
2017-04-17T00:07:03.468Z,99.99
2017-04-17T00:08:03.456Z,99.99
2017-04-17T00:09:03.445Z,99.99
2017-04-17T00:10:03.434Z,99.99
2017-04-17T00:11:03.422Z,99.99
2017-04-17T00:12:03.410Z,99.99
2017-04-17T00:13:03.403Z,99.99
2017-04-17T00:14:03.391Z,99.99
2017-04-17T00:15:03.378Z,99.99
2017-04-17T00:16:03.366Z,99.99
2017-04-17T00:17:03.360Z,99.99
2017-04-17T00:18:03.347Z,99.99
2017-04-17T00:19:03.335Z,99.99
2017-04-17T00:20:03.321Z,99.99
2017-04-17T00:21:03.312Z,99.99
2017-04-17T00:22:03.301Z,99.99
2017-04-17T00:23:03.294Z,99.99
2017-04-17T00:24:03.280Z,99.99
2017-04-17T00:25:03.268Z,99.99
2017-04-17T00:26:03.257Z,99.99
2017-04-17T00:27:03.247Z,99.99
2017-04-17T00:28:03.234Z,99.99
2017-04-17T00:29:03.222Z,99.99
2017-04-17T00:30:03.212Z,99.99
2017-04-17T00:31:03.203Z,99.99
2017-04-17T00:32:03.191Z,99.99
2017-04-17T00:33:03.179Z,99.99
2017-04-17T00:34:03.168Z,99.99
2017-04-17T00:35:03.480Z,99.99
2017-04-17T00:36:03.146Z,99.99
2017-04-17T00:37:03.134Z,99.99
2017-04-17T00:38:03.124Z,99.99
2017-04-17T00:39:03.113Z,99.99
2017-04-17T00:40:03.101Z,99.99
2017-04-17T00:41:03.094Z,99.99
2017-04-17T00:42:03.079Z,99.99
2017-04-17T00:43:03.070Z,99.99
2017-04-17T00:44:03.060Z,99.99
2017-04-17T00:45:02.744Z,99.99
2017-04-17T00:46:03.035Z,99.99
2017-04-17T00:47:03.025Z,99.99
2017-04-17T00:48:03.012Z,99.99
2017-04-17T00:49:03.001Z,99.99
2017-04-17T00:50:02.991Z,99.99
2017-04-17T00:51:02.980Z,99.99
2017-04-17T00:52:02.970Z,99.99
2017-04-17T00:53:02.958Z,99.99
2017-04-17T00:54:02.947Z,99.99
2017-04-17T00:55:02.953Z,99.99
2017-04-17T00:56:02.796Z,99.99
2017-04-17T00:57:02.611Z,99.99
2017-04-17T00:58:02.599Z,99.99
2017-04-17T00:59:02.891Z,99.99
2017-04-17T01:00:02.885Z,99.99
2017-04-17T01:01:02.871Z,99.99
2017-04-17T01:02:02.857Z,99.99
2017-04-17T01:03:02.848Z,99.99
2017-04-17T01:04:02.837Z,99.99
2017-04-17T01:05:02.826Z,99.91
2017-04-17T01:06:02.817Z,99.99
2017-04-17T01:07:02.804Z,99.99
2017-04-17T01:08:02.489Z,99.99
2017-04-17T01:09:02.780Z,99.99
2017-04-17T01:10:02.771Z,99.99
2017-04-17T01:11:02.761Z,99.91
2017-04-17T01:12:02.747Z,99.99
2017-04-17T01:13:02.735Z,99.99
2017-04-17T01:14:02.724Z,99.87
2017-04-17T01:15:02.713Z,99.96
2017-04-17T01:16:02.704Z,99.99
2017-04-17T01:17:02.690Z,99.99
2017-04-17T01:18:02.679Z,99.39
2017-04-17T01:19:02.701Z,99.58
2017-04-17T01:20:02.657Z,99.58
2017-04-17T01:21:02.645Z,99.58
2017-04-17T01:22:02.641Z,99.49
2017-04-17T01:23:02.622Z,99.58
2017-04-17T01:24:02.611Z,99.58
2017-04-17T01:25:02.600Z,99.49
2017-04-17T01:26:02.587Z,99.25
2017-04-17T01:27:02.578Z,99.15
2017-04-17T01:28:02.562Z,99.53
2017-04-17T01:29:02.576Z,99.53
2017-04-17T01:30:02.540Z,99.34
2017-04-17T01:31:02.530Z,99.53
2017-04-17T01:32:02.517Z,99.34
2017-04-17T01:33:02.505Z,99.99
2017-04-17T01:34:02.492Z,99.72
2017-04-17T01:35:02.481Z,99.91
2017-04-17T01:36:02.470Z,99.91
2017-04-17T01:37:02.458Z,99.91
2017-04-17T01:38:02.445Z,99.99
2017-04-17T01:39:02.433Z,99.99
2017-04-17T01:40:02.422Z,99.99
2017-04-17T01:41:02.408Z,99.99
2017-04-17T01:42:02.396Z,99.86
2017-04-17T01:43:02.387Z,99.99
2017-04-17T01:44:02.375Z,99.99
2017-04-17T01:45:02.368Z,99.99
2017-04-17T01:46:02.348Z,99.99
2017-04-17T01:47:02.030Z,99.86
2017-04-17T01:48:02.326Z,99.96
2017-04-17T01:49:02.012Z,99.99
2017-04-17T01:50:02.298Z,99.99
2017-04-17T01:51:02.283Z,99.99
2017-04-17T01:52:01.968Z,99.99
2017-04-17T01:53:02.259Z,99.99
2017-04-17T01:54:02.248Z,99.99
2017-04-17T01:55:02.234Z,99.99
2017-04-17T01:56:02.223Z,99.99
2017-04-17T01:57:02.208Z,99.99
2017-04-17T01:58:02.197Z,99.99
2017-04-17T01:59:02.184Z,99.99
2017-04-17T02:00:02.171Z,99.99
2017-04-17T02:01:02.158Z,99.99
2017-04-17T02:02:02.146Z,99.99
2017-04-17T02:03:02.135Z,99.99
2017-04-17T02:04:02.122Z,99.99
2017-04-17T02:05:02.109Z,99.99
2017-04-17T02:06:02.095Z,99.99
2017-04-17T02:07:02.083Z,99.99
2017-04-17T02:08:02.071Z,99.99
2017-04-17T02:09:02.058Z,99.99
2017-04-17T02:10:02.044Z,99.99
2017-04-17T02:11:02.033Z,99.99
2017-04-17T02:12:02.019Z,99.99
2017-04-17T02:13:02.009Z,99.99
2017-04-17T02:14:01.995Z,99.99
2017-04-17T02:15:01.981Z,99.99
2017-04-17T02:16:01.967Z,99.99
2017-04-17T02:17:01.656Z,99.99
2017-04-17T02:18:01.943Z,99.99
2017-04-17T02:19:01.931Z,99.99
2017-04-17T02:20:01.919Z,99.99
2017-04-17T02:21:01.905Z,99.99
2017-04-17T02:22:01.896Z,99.99
2017-04-17T02:23:01.881Z,99.99
2017-04-17T02:24:01.866Z,99.99
2017-04-17T02:25:01.853Z,99.99
2017-04-17T02:26:01.543Z,99.99
2017-04-17T02:27:01.825Z,99.99
2017-04-17T02:28:01.512Z,99.99
2017-04-17T02:29:01.801Z,99.99
2017-04-17T02:30:01.793Z,99.99
2017-04-17T02:31:01.775Z,99.99
2017-04-17T02:32:01.762Z,99.99
2017-04-17T02:33:01.750Z,99.99
2017-04-17T02:34:01.750Z,99.99
2017-04-17T02:35:01.724Z,99.99
2017-04-17T02:36:01.710Z,99.99
2017-04-17T02:37:01.701Z,99.99
2017-04-17T02:38:01.685Z,99.99
2017-04-17T02:39:01.673Z,99.99
2017-04-17T02:40:01.661Z,99.99
2017-04-17T02:41:01.646Z,99.99
2017-04-17T02:42:01.633Z,99.99
2017-04-17T02:43:01.621Z,99.99
2017-04-17T02:44:01.612Z,99.99
2017-04-17T02:45:01.596Z,99.99
2017-04-17T02:46:01.582Z,99.99
2017-04-17T02:47:01.574Z,99.99
2017-04-17T02:48:01.557Z,99.99
2017-04-17T02:49:01.547Z,99.99
2017-04-17T02:50:01.540Z,99.99
2017-04-17T02:51:01.519Z,99.99
2017-04-17T02:52:01.507Z,99.99
2017-04-17T02:53:01.492Z,99.99
2017-04-17T02:54:01.481Z,99.99
2017-04-17T02:55:01.471Z,99.99
2017-04-17T02:56:01.459Z,99.99
2017-04-17T02:57:01.443Z,99.99
2017-04-17T02:58:01.431Z,99.99
2017-04-17T02:59:01.417Z,99.99
2017-04-17T03:00:01.406Z,99.99
2017-04-17T03:01:01.392Z,99.99
2017-04-17T03:02:01.382Z,99.99
2017-04-17T03:03:01.367Z,99.99
2017-04-17T03:04:01.354Z,99.99
2017-04-17T03:05:01.345Z,99.99
2017-04-17T03:06:01.326Z,99.99
2017-04-17T03:07:01.315Z,99.99
2017-04-17T03:08:01.303Z,99.99
2017-04-17T03:09:01.293Z,99.99
2017-04-17T03:10:01.277Z,99.99
2017-04-17T03:11:01.265Z,99.99
2017-04-17T03:12:01.254Z,99.99
2017-04-17T03:13:01.240Z,99.99
2017-04-17T03:14:01.228Z,99.99
2017-04-17T03:15:01.220Z,99.99
2017-04-17T03:16:01.202Z,99.99
2017-04-17T03:17:01.190Z,99.99
2017-04-17T03:18:01.180Z,99.99
2017-04-17T03:19:01.164Z,99.99
2017-04-17T03:20:01.152Z,99.99
2017-04-17T03:21:01.140Z,99.99
2017-04-17T03:22:01.130Z,99.99
2017-04-17T03:23:01.117Z,99.99
2017-04-17T03:24:01.106Z,99.99
2017-04-17T03:25:01.093Z,99.99
2017-04-17T03:26:01.078Z,99.99
2017-04-17T03:27:01.067Z,99.99
2017-04-17T03:28:01.053Z,99.99
2017-04-17T03:29:01.042Z,99.99
2017-04-17T03:30:01.029Z,99.99
2017-04-17T03:31:01.017Z,99.99
2017-04-17T03:32:01.005Z,99.99
2017-04-17T03:33:00.995Z,99.99
2017-04-17T03:34:00.980Z,99.99
2017-04-17T03:35:00.969Z,99.99
2017-04-17T03:36:00.956Z,99.99
2017-04-17T03:37:00.947Z,99.99
2017-04-17T03:38:00.932Z,99.99
2017-04-17T03:39:00.919Z,99.99
2017-04-17T03:40:00.907Z,99.99
2017-04-17T03:41:00.897Z,99.99
2017-04-17T03:42:00.885Z,99.99
2017-04-17T03:43:00.871Z,99.99
2017-04-17T03:44:00.860Z,99.99
2017-04-17T03:45:00.957Z,99.99
2017-04-17T03:46:00.837Z,99.99
2017-04-17T03:47:00.823Z,99.99
2017-04-17T03:48:00.815Z,99.99
2017-04-17T03:49:00.805Z,99.99
2017-04-17T03:50:00.789Z,99.99
2017-04-17T03:51:00.777Z,99.99
2017-04-17T03:52:00.763Z,99.99
2017-04-17T03:53:00.754Z,99.99
2017-04-17T03:54:00.741Z,99.99
2017-04-17T03:55:00.727Z,99.99
2017-04-17T03:56:00.412Z,99.99
2017-04-17T03:57:00.705Z,99.99
2017-04-17T03:58:00.694Z,99.99
2017-04-17T03:59:00.682Z,99.99
2017-04-17T04:00:00.668Z,99.99
2017-04-17T04:01:00.655Z,99.99
2017-04-17T04:02:00.644Z,99.99
2017-04-17T04:03:00.634Z,99.99
2017-04-17T04:04:00.622Z,99.99
2017-04-17T04:05:00.609Z,99.99
2017-04-17T04:06:00.626Z,99.99
2017-04-17T04:07:00.588Z,99.99
2017-04-17T04:08:00.579Z,99.99
2017-04-17T04:09:00.564Z,99.99
2017-04-17T04:10:00.550Z,99.99
2017-04-17T04:11:00.540Z,99.99
2017-04-17T04:12:00.525Z,99.99
2017-04-17T04:13:00.516Z,99.99
2017-04-17T04:14:00.502Z,99.99
2017-04-17T04:15:00.492Z,99.99
2017-04-17T04:16:00.479Z,99.99
2017-04-17T04:17:00.466Z,99.99
2017-04-17T04:18:00.456Z,99.99
2017-04-17T04:19:00.446Z,99.99
2017-04-17T04:20:00.433Z,99.99
2017-04-17T04:21:00.421Z,99.99
2017-04-17T04:22:00.409Z,99.99
2017-04-17T04:23:00.400Z,99.99
2017-04-17T04:24:00.387Z,99.99
2017-04-17T04:25:00.374Z,99.99
2017-04-17T04:26:00.366Z,99.99
2017-04-17T04:27:00.353Z,99.99
2017-04-17T04:28:00.337Z,99.99
2017-04-17T04:29:00.327Z,99.99
2017-04-17T04:30:00.318Z,99.99
2017-04-17T04:31:00.305Z,99.99
2017-04-17T04:32:00.294Z,99.99
2017-04-17T04:33:00.282Z,99.99
2017-04-17T04:34:00.272Z,99.99
2017-04-17T04:35:00.262Z,99.99
2017-04-17T04:36:00.248Z,99.99
2017-04-17T04:37:00.237Z,99.99
2017-04-17T04:38:00.226Z,99.99
2017-04-17T04:39:00.217Z,99.99
2017-04-17T04:39:59.900Z,99.99
2017-04-17T04:41:00.191Z,99.99
2017-04-17T04:42:00.182Z,99.99
2017-04-17T04:43:00.170Z,99.99
2017-04-17T04:44:00.159Z,99.99
2017-04-17T04:44:59.846Z,99.99
2017-04-17T04:46:00.135Z,99.99
2017-04-17T04:47:00.124Z,99.99
2017-04-17T04:48:00.113Z,99.99
2017-04-17T04:49:00.102Z,99.99
2017-04-17T04:50:00.092Z,99.99
2017-04-17T04:51:00.080Z,99.99
2017-04-17T04:52:00.097Z,99.99
2017-04-17T04:53:00.058Z,99.99
2017-04-17T04:54:00.047Z,99.99
2017-04-17T04:55:00.036Z,99.99
2017-04-17T04:56:00.025Z,99.99
2017-04-17T04:57:00.018Z,99.99
2017-04-17T04:58:00.003Z,99.99
2017-04-17T04:58:59.991Z,99.99
2017-04-17T04:59:59.980Z,99.99
2017-04-17T05:00:59.668Z,99.99
2017-04-17T05:01:59.958Z,99.99
2017-04-17T05:02:59.949Z,99.99
2017-04-17T05:04:00.065Z,99.99
2017-04-17T05:04:59.926Z,99.99
2017-04-17T05:05:59.917Z,99.99
2017-04-17T05:06:59.904Z,99.99
2017-04-17T05:07:59.893Z,99.99
2017-04-17T05:08:59.889Z,99.99
2017-04-17T05:09:59.873Z,99.99
2017-04-17T05:10:59.860Z,99.99
2017-04-17T05:11:59.851Z,99.99
2017-04-17T05:12:59.841Z,99.99
2017-04-17T05:13:59.830Z,99.99
2017-04-17T05:14:59.821Z,99.99
2017-04-17T05:15:59.809Z,99.99
2017-04-17T05:16:59.798Z,99.99
2017-04-17T05:17:59.788Z,99.99
2017-04-17T05:18:59.777Z,99.99
2017-04-17T05:19:59.769Z,99.99
2017-04-17T05:20:59.761Z,99.99
2017-04-17T05:21:59.746Z,99.99
2017-04-17T05:22:59.436Z,99.99
2017-04-17T05:23:59.726Z,99.99
2017-04-17T05:24:59.715Z,99.99
2017-04-17T05:25:59.705Z,99.99
2017-04-17T05:26:59.697Z,99.99
2017-04-17T05:27:59.685Z,99.99
2017-04-17T05:28:59.677Z,99.99
2017-04-17T05:29:59.801Z,99.99
2017-04-17T05:30:59.654Z,99.99
2017-04-17T05:31:59.645Z,99.99
2017-04-17T05:32:59.634Z,99.99
2017-04-17T05:33:59.624Z,99.99
2017-04-17T05:34:59.616Z,99.99
2017-04-17T05:35:59.605Z,99.99
2017-04-17T05:36:59.595Z,99.99
2017-04-17T05:37:59.585Z,99.99
2017-04-17T05:38:59.579Z,99.99
2017-04-17T05:39:59.566Z,99.99
2017-04-17T05:40:59.560Z,99.99
2017-04-17T05:41:59.544Z,99.99
2017-04-17T05:42:59.538Z,99.99
2017-04-17T05:43:59.525Z,99.99
2017-04-17T05:44:59.516Z,99.99
2017-04-17T05:45:59.511Z,99.99
2017-04-17T05:46:59.495Z,99.99
2017-04-17T05:47:59.489Z,99.99
2017-04-17T05:48:59.479Z,99.99
2017-04-17T05:49:59.468Z,99.99
2017-04-17T05:50:59.457Z,99.99
2017-04-17T05:51:59.448Z,99.99
2017-04-17T05:52:59.441Z,99.99
2017-04-17T05:53:59.431Z,99.99
2017-04-17T05:54:59.421Z,99.99
2017-04-17T05:55:59.411Z,99.99
2017-04-17T05:56:59.401Z,99.99
2017-04-17T05:57:59.389Z,99.99
2017-04-17T05:58:59.081Z,99.99
2017-04-17T05:59:59.374Z,99.99
2017-04-17T06:00:59.364Z,99.99
2017-04-17T06:01:59.353Z,99.99
2017-04-17T06:02:59.345Z,99.99
2017-04-17T06:03:59.335Z,99.99
2017-04-17T06:04:59.426Z,99.99
2017-04-17T06:05:59.318Z,99.99
2017-04-17T06:06:59.311Z,99.99
2017-04-17T06:07:59.300Z,99.99
2017-04-17T06:08:59.298Z,99.99
2017-04-17T06:09:59.281Z,99.99
2017-04-17T06:10:58.971Z,99.99
2017-04-17T06:11:59.263Z,99.99
2017-04-17T06:12:59.254Z,99.99
2017-04-17T06:13:59.244Z,99.99
2017-04-17T06:14:59.235Z,99.99
2017-04-17T06:15:59.226Z,99.99
2017-04-17T06:16:59.217Z,99.99
2017-04-17T06:17:59.211Z,99.99
2017-04-17T06:18:59.199Z,99.99
2017-04-17T06:19:59.189Z,99.99
2017-04-17T06:20:59.180Z,99.99
2017-04-17T06:21:59.172Z,99.99
2017-04-17T06:22:59.163Z,99.99
2017-04-17T06:23:59.156Z,99.99
2017-04-17T06:24:59.145Z,99.99
2017-04-17T06:25:59.136Z,99.99
2017-04-17T06:26:58.827Z,99.99
2017-04-17T06:27:59.122Z,99.99
2017-04-17T06:28:59.111Z,99.99
2017-04-17T06:29:59.102Z,99.99
2017-04-17T06:30:59.098Z,99.99
2017-04-17T06:31:59.085Z,99.99
2017-04-17T06:32:59.077Z,99.99
2017-04-17T06:33:59.067Z,99.99
2017-04-17T06:34:59.058Z,99.99
2017-04-17T06:35:59.050Z,99.99
2017-04-17T06:36:59.042Z,99.99
2017-04-17T06:37:59.033Z,99.99
2017-04-17T06:38:58.722Z,99.99
2017-04-17T06:39:59.016Z,99.99
2017-04-17T06:40:59.009Z,99.99
2017-04-17T06:41:59.004Z,99.99
2017-04-17T06:42:58.990Z,99.99
2017-04-17T06:43:58.984Z,99.99
2017-04-17T06:44:58.975Z,99.99
2017-04-17T06:45:58.965Z,99.99
2017-04-17T06:46:58.958Z,99.99
2017-04-17T06:47:58.952Z,99.99
2017-04-17T06:48:58.942Z,99.99
2017-04-17T06:49:58.936Z,99.99
2017-04-17T06:50:58.928Z,99.99
2017-04-17T06:51:58.921Z,99.99
2017-04-17T06:52:58.914Z,99.99
2017-04-17T06:53:58.604Z,99.99
2017-04-17T06:54:58.901Z,99.99
2017-04-17T06:55:58.895Z,99.99
2017-04-17T06:56:58.888Z,99.99
2017-04-17T06:57:58.882Z,99.99
2017-04-17T06:58:58.879Z,99.99
2017-04-17T06:59:58.873Z,99.99
2017-04-17T07:00:58.865Z,99.99
2017-04-17T07:01:58.860Z,99.99
2017-04-17T07:02:58.856Z,99.99
2017-04-17T07:03:58.851Z,99.99
2017-04-17T07:04:58.846Z,99.99
2017-04-17T07:05:58.842Z,99.99
2017-04-17T07:06:59.136Z,98.9
2017-04-17T07:07:58.831Z,99.37
2017-04-17T07:08:58.827Z,98.9
2017-04-17T07:09:58.822Z,99.85
2017-04-17T07:10:58.816Z,99.99
2017-04-17T07:11:58.510Z,99.99
2017-04-17T07:12:58.809Z,99.99
2017-04-17T07:13:58.807Z,99.99
2017-04-17T07:14:58.805Z,99.99
2017-04-17T07:15:58.806Z,99.99
2017-04-17T07:16:58.799Z,99.99
2017-04-17T07:17:58.799Z,99
2017-04-17T07:18:58.798Z,99.52
2017-04-17T07:19:58.801Z,98.81
2017-04-17T07:20:58.791Z,98.91
2017-04-17T07:21:58.791Z,99.63
2017-04-17T07:22:58.787Z,99.01
2017-04-17T07:23:58.787Z,99.05
2017-04-17T07:24:58.786Z,98.38
2017-04-17T07:25:58.785Z,96.03
2017-04-17T07:26:58.787Z,95.55
2017-04-17T07:27:58.790Z,95.79
2017-04-17T07:28:58.792Z,96.08
2017-04-17T07:29:58.793Z,94.4
2017-04-17T07:30:58.795Z,91.28
2017-04-17T07:31:58.796Z,90.99
2017-04-17T07:32:58.798Z,92.39
2017-04-17T07:33:58.803Z,93.92
2017-04-17T07:34:58.805Z,95.89
2017-04-17T07:35:58.805Z,94.35
2017-04-17T07:36:58.807Z,94.49
2017-04-17T07:37:58.812Z,94.59
2017-04-17T07:38:58.818Z,94.98
2017-04-17T07:39:58.822Z,93.68
2017-04-17T07:40:58.824Z,91.18
2017-04-17T07:41:58.828Z,92.43
2017-04-17T07:42:58.831Z,91.9
2017-04-17T07:43:58.835Z,92.19
2017-04-17T07:44:58.840Z,93.05
2017-04-17T07:45:58.845Z,93.05
2017-04-17T07:46:58.848Z,93.87
2017-04-17T07:47:59.203Z,94.73
2017-04-17T07:48:58.860Z,95.84
2017-04-17T07:49:58.864Z,96.32
2017-04-17T07:50:58.869Z,93.48
2017-04-17T07:51:58.877Z,94.06
2017-04-17T07:52:58.888Z,91.99
2017-04-17T07:53:58.889Z,91.8
2017-04-17T07:54:58.895Z,90.64
2017-04-17T07:55:58.905Z,88.62
2017-04-17T07:56:58.910Z,91.17
2017-04-17T07:57:58.916Z,91.8
2017-04-17T07:58:58.924Z,89.87
2017-04-17T07:59:58.930Z,89.83
2017-04-17T08:00:58.935Z,90.59
2017-04-17T08:01:58.940Z,89.83
2017-04-17T08:02:58.949Z,90.5
2017-04-17T08:03:58.952Z,92.23
2017-04-17T08:04:58.656Z,92.33
2017-04-17T08:05:58.961Z,91.17
2017-04-17T08:06:58.662Z,91.31
2017-04-17T08:07:58.972Z,89.97
2017-04-17T08:08:58.978Z,91.99
2017-04-17T08:09:58.984Z,92.38
2017-04-17T08:10:58.685Z,86.69
2017-04-17T08:11:58.997Z,81.98
2017-04-17T08:12:59.046Z,83.86
2017-04-17T08:13:59.005Z,81.9
2017-04-17T08:14:58.707Z,78.11
2017-04-17T08:15:59.013Z,83.36
2017-04-17T08:16:59.016Z,87.58
2017-04-17T08:17:59.020Z,85.81
2017-04-17T08:18:59.022Z,85.81
2017-04-17T08:19:59.026Z,88.35
2017-04-17T08:20:59.026Z,89.41
2017-04-17T08:21:58.726Z,88.35
2017-04-17T08:22:59.030Z,86.3
2017-04-17T08:23:59.028Z,88.84
2017-04-17T08:24:59.030Z,87.88
2017-04-17T08:25:59.030Z,89.8
2017-04-17T08:26:59.030Z,90.76
2017-04-17T08:27:59.032Z,90.14
2017-04-17T08:28:59.030Z,91.77
2017-04-17T08:29:59.030Z,92.92
2017-04-17T08:30:59.032Z,93.98
2017-04-17T08:31:59.029Z,94.17
2017-04-17T08:32:59.034Z,93.4
2017-04-17T08:33:59.031Z,93.16
2017-04-17T08:34:59.029Z,94.59
2017-04-17T08:35:59.027Z,95.36
2017-04-17T08:36:59.028Z,91.14
2017-04-17T08:37:59.026Z,89.9
2017-04-17T08:38:59.024Z,90.72
2017-04-17T08:39:59.023Z,90.62
2017-04-17T08:40:59.023Z,90.09
2017-04-17T08:41:59.020Z,90.77
2017-04-17T08:42:59.018Z,90.19
2017-04-17T08:43:59.017Z,86.8
2017-04-17T08:44:59.016Z,85.46
2017-04-17T08:45:59.012Z,85.65
2017-04-17T08:46:59.009Z,89.15
2017-04-17T08:47:59.009Z,88.81
2017-04-17T08:48:59.005Z,85.94
2017-04-17T08:49:59.001Z,86.8
2017-04-17T08:50:58.998Z,88.24
2017-04-17T08:51:58.995Z,88.77
2017-04-17T08:52:58.993Z,90.39
2017-04-17T08:53:58.990Z,92.64
2017-04-17T08:54:58.986Z,93.6
2017-04-17T08:55:58.984Z,94.12
2017-04-17T08:56:58.982Z,92.69
2017-04-17T08:57:58.975Z,92.88
2017-04-17T08:58:58.972Z,93.5
2017-04-17T08:59:58.998Z,92.07
2017-04-17T09:00:58.963Z,94.27
2017-04-17T09:01:58.957Z,95.65
2017-04-17T09:02:58.956Z,97.08
2017-04-17T09:03:58.952Z,98.23
2017-04-17T09:04:58.947Z,99.04
2017-04-17T09:05:58.947Z,99.04
2017-04-17T09:06:58.939Z,99.43
2017-04-17T09:07:58.975Z,99.38
2017-04-17T09:08:58.930Z,99.99
2017-04-17T09:09:58.926Z,99.72
2017-04-17T09:10:58.923Z,99.62
2017-04-17T09:11:58.941Z,99.05
2017-04-17T09:12:58.923Z,98.19
2017-04-17T09:13:58.913Z,97.56
2017-04-17T09:14:59.174Z,97.66
2017-04-17T09:15:58.903Z,96.32
2017-04-17T09:16:58.904Z,95.84
2017-04-17T09:17:58.898Z,97.28
2017-04-17T09:18:58.895Z,97.38
2017-04-17T09:19:58.891Z,97.85
2017-04-17T09:20:58.889Z,98.28
2017-04-17T09:21:58.583Z,97.9
2017-04-17T09:22:58.882Z,95.89
2017-04-17T09:23:58.879Z,95.51
2017-04-17T09:24:58.877Z,95.98
2017-04-17T09:25:58.873Z,96.66
2017-04-17T09:26:58.567Z,94.93
2017-04-17T09:27:58.870Z,93.98
2017-04-17T09:28:58.867Z,91.58
2017-04-17T09:29:58.862Z,88.8
2017-04-17T09:30:58.863Z,91.49
2017-04-17T09:31:58.856Z,92.49
2017-04-17T09:32:58.860Z,93.35
2017-04-17T09:33:58.850Z,89.72
2017-04-17T09:34:58.544Z,90.09
2017-04-17T09:35:58.845Z,91.92
2017-04-17T09:36:59.093Z,91.53
2017-04-17T09:37:58.839Z,91.11
2017-04-17T09:38:58.838Z,82.49
2017-04-17T09:39:58.836Z,76.84
2017-04-17T09:40:58.831Z,68.2
2017-04-17T09:41:58.830Z,71
2017-04-17T09:42:58.828Z,74.63
2017-04-17T09:43:58.822Z,77.08
2017-04-17T09:44:58.818Z,76.65
2017-04-17T09:45:58.814Z,78.72
2017-04-17T09:46:58.810Z,79.67
2017-04-17T09:47:58.807Z,82.97
2017-04-17T09:48:58.803Z,84.2
2017-04-17T09:49:58.797Z,88.88
2017-04-17T09:50:58.792Z,90.22
2017-04-17T09:51:58.793Z,89.45
2017-04-17T09:52:58.783Z,90.55
2017-04-17T09:53:58.780Z,90.93
2017-04-17T09:54:58.773Z,91.13
2017-04-17T09:55:58.768Z,91.31
2017-04-17T09:56:58.764Z,92.41
2017-04-17T09:57:58.761Z,92.32
2017-04-17T09:58:58.752Z,92.6
2017-04-17T09:59:58.754Z,92.5
2017-04-17T10:00:58.741Z,93.37
2017-04-17T10:01:58.733Z,94.08
2017-04-17T10:02:58.728Z,94.93
2017-04-17T10:03:58.723Z,95.22
2017-04-17T10:04:58.882Z,95.79
2017-04-17T10:05:58.709Z,95.89
2017-04-17T10:06:58.703Z,95.89
2017-04-17T10:07:58.698Z,96.22
2017-04-17T10:08:58.691Z,95.84
2017-04-17T10:09:58.682Z,96.51
2017-04-17T10:10:58.676Z,97.17
2017-04-17T10:11:58.670Z,97.17
2017-04-17T10:12:58.665Z,97.27
2017-04-17T10:13:58.657Z,97.56
2017-04-17T10:14:58.660Z,97.41
2017-04-17T10:15:58.342Z,97.7
2017-04-17T10:16:58.638Z,97.99
2017-04-17T10:17:58.631Z,97.13
2017-04-17T10:18:58.624Z,97.22
2017-04-17T10:19:58.617Z,97.32
2017-04-17T10:20:58.609Z,97.17
2017-04-17T10:21:58.772Z,97.27
2017-04-17T10:22:58.599Z,97.27
2017-04-17T10:23:58.594Z,97.46
2017-04-17T10:24:58.587Z,96.98
2017-04-17T10:25:58.579Z,97.85
2017-04-17T10:26:58.573Z,97.99
2017-04-17T10:27:58.566Z,98.75
2017-04-17T10:28:58.560Z,99.23
2017-04-17T10:29:58.558Z,99.57
2017-04-17T10:30:58.548Z,99.85
2017-04-17T10:31:58.542Z,99.99
2017-04-17T10:32:58.538Z,99.99
2017-04-17T10:33:58.535Z,99.99
2017-04-17T10:34:58.526Z,96.51
2017-04-17T10:35:58.521Z,95.65
2017-04-17T10:36:58.517Z,90.59
2017-04-17T10:37:58.512Z,81.99
2017-04-17T10:38:58.645Z,79.94
2017-04-17T10:39:58.501Z,83.81
2017-04-17T10:40:58.497Z,84.34
2017-04-17T10:41:58.492Z,81.1
2017-04-17T10:42:58.489Z,79.06
2017-04-17T10:43:58.483Z,77.82
2017-04-17T10:44:58.477Z,78.25
2017-04-17T10:45:58.476Z,78.44
2017-04-17T10:46:58.467Z,79.83
2017-04-17T10:47:58.462Z,76.12
2017-04-17T10:48:58.458Z,78.17
2017-04-17T10:49:58.453Z,84.46
2017-04-17T10:50:58.446Z,88.18
2017-04-17T10:51:58.443Z,88.65
2017-04-17T10:52:58.137Z,89.22
2017-04-17T10:53:58.436Z,89.65
2017-04-17T10:54:58.436Z,90.5
2017-04-17T10:55:58.422Z,90.7
2017-04-17T10:56:58.717Z,91.84
2017-04-17T10:57:58.415Z,91.41
2017-04-17T10:58:58.408Z,93.22
2017-04-17T10:59:58.401Z,93.98
2017-04-17T11:00:58.396Z,94.03
2017-04-17T11:01:58.391Z,91.74
2017-04-17T11:02:58.388Z,91.74
2017-04-17T11:03:58.385Z,92.5
2017-04-17T11:04:58.376Z,93.74
2017-04-17T11:05:58.371Z,92.41
2017-04-17T11:06:58.367Z,93.02
2017-04-17T11:07:58.360Z,93.12
2017-04-17T11:08:58.355Z,93.12
2017-04-17T11:09:58.047Z,92.83
2017-04-17T11:10:58.342Z,93.88
2017-04-17T11:11:58.339Z,93.41
2017-04-17T11:12:58.332Z,92.83
2017-04-17T11:13:58.327Z,92.26
2017-04-17T11:14:58.322Z,91.88
2017-04-17T11:15:58.314Z,92.31
2017-04-17T11:16:58.310Z,92.79
2017-04-17T11:17:58.306Z,93.07
2017-04-17T11:18:58.002Z,92.88
2017-04-17T11:19:58.297Z,92.97
2017-04-17T11:20:58.290Z,90.97
2017-04-17T11:21:58.300Z,87.25
2017-04-17T11:22:57.977Z,87.63
2017-04-17T11:23:58.274Z,87.97
2017-04-17T11:24:58.269Z,89.21
2017-04-17T11:25:58.261Z,89.88
2017-04-17T11:26:58.257Z,90.64
2017-04-17T11:27:58.253Z,89.88
2017-04-17T11:28:58.247Z,88.16
2017-04-17T11:29:58.240Z,80.05
2017-04-17T11:30:58.231Z,84.72
2017-04-17T11:31:58.228Z,78.23
2017-04-17T11:32:58.221Z,70.67
2017-04-17T11:33:58.215Z,76.57
2017-04-17T11:34:58.211Z,81.35
2017-04-17T11:35:57.901Z,79.06
2017-04-17T11:36:58.198Z,84.88
2017-04-17T11:37:58.198Z,89.36
2017-04-17T11:38:58.189Z,87.45
2017-04-17T11:39:58.179Z,86.69
2017-04-17T11:40:58.173Z,88.07
2017-04-17T11:41:58.168Z,81.2
2017-04-17T11:42:58.161Z,76.52
2017-04-17T11:43:58.156Z,75.66
2017-04-17T11:44:58.150Z,78.33
2017-04-17T11:45:58.142Z,80.24
2017-04-17T11:46:58.140Z,78.72
2017-04-17T11:47:58.132Z,82.15
2017-04-17T11:48:58.124Z,79.38
2017-04-17T11:49:57.817Z,72.71
2017-04-17T11:50:58.135Z,75.76
2017-04-17T11:51:58.116Z,72.8
2017-04-17T11:52:58.127Z,71.33
2017-04-17T11:53:58.096Z,70.28
2017-04-17T11:54:58.094Z,70.28
2017-04-17T11:55:58.084Z,70
2017-04-17T11:56:58.078Z,73.96
2017-04-17T11:57:58.073Z,83.65
2017-04-17T11:58:58.070Z,85.7
2017-04-17T11:59:58.062Z,86.99
2017-04-17T12:00:58.056Z,89.56
2017-04-17T12:01:58.049Z,91.61
2017-04-17T12:02:58.252Z,87.95
2017-04-17T12:03:58.037Z,76.06
2017-04-17T12:04:58.032Z,73.65
2017-04-17T12:05:58.023Z,72.13
2017-04-17T12:06:58.015Z,72.03
2017-04-17T12:07:58.012Z,71.33
2017-04-17T12:08:58.004Z,71.62
2017-04-17T12:09:57.994Z,72.28
2017-04-17T12:10:57.986Z,72.47
2017-04-17T12:11:57.977Z,73.1
2017-04-17T12:12:57.971Z,72.91
2017-04-17T12:13:57.964Z,73.14
2017-04-17T12:14:57.953Z,73.61
2017-04-17T12:15:57.947Z,73.52
2017-04-17T12:16:57.937Z,73.9
2017-04-17T12:17:57.928Z,74.18
2017-04-17T12:18:57.619Z,74.03
2017-04-17T12:19:57.915Z,74.22
2017-04-17T12:20:57.904Z,74.03
2017-04-17T12:21:57.895Z,74.69
2017-04-17T12:22:57.886Z,74.54
2017-04-17T12:23:57.879Z,74.63
2017-04-17T12:24:57.870Z,74.63
2017-04-17T12:25:57.860Z,74.48
2017-04-17T12:26:57.853Z,75.34
2017-04-17T12:27:57.844Z,75.34
2017-04-17T12:28:57.839Z,75.24
2017-04-17T12:29:57.829Z,75.09
2017-04-17T12:30:57.516Z,74.62
2017-04-17T12:31:57.813Z,74.33
2017-04-17T12:32:57.805Z,74.8
2017-04-17T12:33:57.797Z,74.62
2017-04-17T12:34:57.798Z,74.8
2017-04-17T12:35:57.778Z,74.14
2017-04-17T12:36:57.771Z,74.43
2017-04-17T12:37:57.766Z,74.14
2017-04-17T12:38:57.759Z,74.52
2017-04-17T12:39:57.760Z,74.99
2017-04-17T12:40:57.740Z,74.71
2017-04-17T12:41:57.737Z,74.14
2017-04-17T12:42:57.726Z,74.52
2017-04-17T12:43:57.723Z,74.37
2017-04-17T12:44:57.713Z,73.99
2017-04-17T12:45:57.704Z,74.56
2017-04-17T12:46:57.695Z,73.89
2017-04-17T12:47:57.693Z,73.99
2017-04-17T12:48:57.692Z,74.65
2017-04-17T12:49:57.675Z,73.99
2017-04-17T12:50:57.667Z,73.8
2017-04-17T12:51:57.658Z,74.08
2017-04-17T12:52:57.655Z,74.37
2017-04-17T12:53:57.646Z,74.37